createdAt,value
2022-11-17T00:00:13.683Z,5.22
2022-11-17T00:02:40.439Z,5.28
2022-11-17T00:05:07.621Z,5.35
2022-11-17T00:07:34.699Z,5.32
2022-11-17T00:10:01.582Z,5.35
2022-11-17T00:12:47.007Z,5.20
2022-11-17T00:15:13.641Z,5.45
2022-11-17T00:17:40.297Z,5.60
2022-11-17T00:20:26.636Z,5.65
2022-11-17T00:22:53.278Z,5.53
2022-11-17T00:25:19.913Z,5.55
2022-11-17T00:27:46.603Z,5.93
2022-11-17T00:30:33.741Z,5.90
2022-11-17T00:33:22.167Z,5.68
2022-11-17T00:35:54.145Z,5.10
2022-11-17T00:38:20.877Z,6.03
2022-11-17T00:40:47.552Z,6.03
2022-11-17T00:43:14.415Z,6.30
2022-11-17T00:45:41.681Z,6.43
2022-11-17T00:48:08.600Z,6.57
2022-11-17T00:50:35.619Z,7.60
2022-11-17T00:53:02.276Z,7.15
2022-11-17T00:55:29.172Z,6.93
2022-11-17T00:57:56.153Z,6.90
2022-11-17T01:00:23.655Z,7.60
2022-11-17T01:02:50.398Z,6.75
2022-11-17T01:05:17.618Z,5.25
2022-11-17T01:07:44.442Z,6.30
2022-11-17T01:10:11.169Z,6.00
2022-11-17T01:12:37.887Z,6.05
2022-11-17T01:15:04.875Z,7.03
2022-11-17T01:17:31.569Z,5.88
2022-11-17T01:19:58.192Z,6.63
2022-11-17T01:22:24.916Z,6.82
2022-11-17T01:24:51.567Z,7.25
2022-11-17T01:27:18.241Z,7.85
2022-11-17T01:29:44.854Z,7.95
2022-11-17T01:32:11.536Z,8.52
2022-11-17T01:34:38.206Z,8.23
2022-11-17T01:37:20.080Z,7.90
2022-11-17T01:39:50.682Z,7.22
2022-11-17T01:42:21.681Z,6.70
2022-11-17T01:45:04.147Z,6.60
2022-11-17T01:47:42.941Z,6.35
2022-11-17T01:50:21.937Z,6.53
2022-11-17T01:52:50.509Z,6.55
2022-11-17T01:55:19.829Z,6.78
2022-11-17T01:58:01.024Z,6.97
2022-11-17T02:00:28.480Z,5.97
2022-11-17T02:02:56.037Z,6.53
2022-11-17T02:05:28.044Z,5.95
2022-11-17T02:07:56.830Z,6.38
2022-11-17T02:10:23.753Z,6.88
2022-11-17T02:12:50.784Z,7.30
2022-11-17T02:15:17.528Z,6.55
2022-11-17T02:17:44.453Z,6.82
2022-11-17T02:20:17.893Z,6.68
2022-11-17T02:23:04.929Z,6.53
2022-11-17T02:25:43.578Z,6.95
2022-11-17T02:28:22.460Z,7.40
2022-11-17T02:31:25.518Z,7.18
2022-11-17T02:33:55.829Z,6.78
2022-11-17T02:36:41.492Z,7.22
2022-11-17T02:39:23.150Z,7.05
2022-11-17T02:42:11.437Z,7.10
2022-11-17T02:44:51.035Z,6.38
2022-11-17T02:47:24.070Z,6.88
2022-11-17T02:49:55.647Z,6.22
2022-11-17T02:52:23.346Z,6.77
2022-11-17T02:54:50.006Z,6.25
2022-11-17T02:57:29.843Z,7.22
2022-11-17T02:59:59.551Z,7.28
2022-11-17T03:02:40.227Z,7.00
2022-11-17T03:05:18.362Z,7.15
2022-11-17T03:07:53.986Z,7.20
2022-11-17T03:10:27.690Z,6.80
2022-11-17T03:13:06.202Z,6.53
2022-11-17T03:15:43.924Z,7.25
2022-11-17T03:18:13.483Z,6.68
2022-11-17T03:20:55.093Z,6.32
2022-11-17T03:23:50.486Z,5.90
2022-11-17T03:26:26.738Z,6.30
2022-11-17T03:28:55.602Z,6.65
2022-11-17T03:31:26.312Z,7.40
2022-11-17T03:33:53.955Z,6.47
2022-11-17T03:36:25.932Z,5.97
2022-11-17T03:39:06.365Z,6.63
2022-11-17T03:41:39.423Z,6.30
2022-11-17T03:44:06.881Z,5.93
2022-11-17T03:46:37.043Z,5.80
2022-11-17T03:49:23.536Z,6.35
2022-11-17T03:51:50.700Z,6.13
2022-11-17T03:54:17.621Z,6.10
2022-11-17T03:57:02.801Z,5.85
2022-11-17T03:59:43.259Z,7.03
2022-11-17T04:02:20.330Z,8.02
2022-11-17T04:05:05.575Z,7.22
2022-11-17T04:07:43.944Z,6.90
2022-11-17T04:10:16.485Z,6.50
2022-11-17T04:13:02.402Z,5.78
2022-11-17T04:15:48.101Z,5.20
2022-11-17T04:18:15.272Z,6.05
2022-11-17T04:20:42.570Z,5.78
2022-11-17T04:23:14.366Z,5.63
2022-11-17T04:26:03.173Z,5.93
2022-11-17T04:28:38.445Z,5.28
2022-11-17T04:31:15.725Z,5.45
2022-11-17T04:33:43.530Z,5.40
2022-11-17T04:36:12.195Z,5.68
2022-11-17T04:38:48.096Z,4.78
2022-11-17T04:41:34.787Z,5.47
2022-11-17T04:44:02.228Z,4.97
2022-11-17T04:46:31.191Z,5.13
2022-11-17T04:48:58.987Z,6.00
2022-11-17T04:51:26.730Z,6.25
2022-11-17T04:53:53.803Z,5.90
2022-11-17T04:56:21.700Z,5.45
2022-11-17T04:58:48.905Z,5.57
2022-11-17T05:01:17.408Z,4.95
2022-11-17T05:03:47.031Z,5.20
2022-11-17T05:06:19.954Z,4.45
2022-11-17T05:08:46.998Z,4.47
2022-11-17T05:11:34.285Z,4.03
2022-11-17T05:14:01.604Z,4.45
2022-11-17T05:16:47.362Z,4.75
2022-11-17T05:19:18.087Z,4.13
2022-11-17T05:21:45.205Z,4.90
2022-11-17T05:24:14.319Z,5.13
2022-11-17T05:26:43.172Z,5.90
2022-11-17T05:29:11.441Z,4.80
2022-11-17T05:31:38.420Z,5.40
2022-11-17T05:34:07.260Z,5.20
2022-11-17T05:36:34.577Z,5.50
2022-11-17T05:39:01.301Z,6.20
2022-11-17T05:41:28.924Z,6.00
2022-11-17T05:43:56.487Z,6.60
2022-11-17T05:46:24.059Z,6.90
2022-11-17T05:48:51.720Z,6.13
2022-11-17T05:51:20.822Z,6.28
2022-11-17T05:53:48.107Z,6.32
2022-11-17T05:56:28.428Z,6.20
2022-11-17T05:59:10.861Z,5.93
2022-11-17T06:01:42.482Z,6.57
2022-11-17T06:04:10.141Z,6.82
2022-11-17T06:06:37.764Z,6.45
2022-11-17T06:09:04.857Z,6.57
2022-11-17T06:11:31.622Z,6.38
2022-11-17T06:13:58.321Z,6.30
2022-11-17T06:16:29.812Z,6.55
2022-11-17T06:19:05.140Z,6.53
2022-11-17T06:22:04.609Z,7.05
2022-11-17T06:24:20.771Z,6.68
2022-11-17T06:26:47.575Z,6.38
2022-11-17T06:29:15.396Z,6.72
2022-11-17T06:31:44.232Z,6.50
2022-11-17T06:34:11.457Z,6.63
2022-11-17T06:36:38.159Z,6.35
2022-11-17T06:39:04.964Z,5.25
2022-11-17T06:41:31.616Z,5.50
2022-11-17T06:43:58.285Z,4.20
2022-11-17T06:46:24.949Z,5.07
2022-11-17T06:48:54.506Z,3.63
2022-11-17T06:51:21.129Z,4.18
2022-11-17T06:53:47.808Z,3.60
2022-11-17T06:56:17.090Z,3.15
2022-11-17T06:58:43.856Z,3.30
2022-11-17T07:01:13.569Z,3.00
2022-11-17T07:03:43.038Z,3.40
2022-11-17T07:06:10.973Z,2.75
2022-11-17T07:08:38.525Z,3.38
2022-11-17T07:11:16.619Z,3.80
2022-11-17T07:13:43.533Z,3.13
2022-11-17T07:16:21.828Z,2.60
2022-11-17T07:18:50.893Z,3.03
2022-11-17T07:21:18.105Z,2.42
2022-11-17T07:23:45.921Z,2.72
2022-11-17T07:26:12.946Z,2.25
2022-11-17T07:28:39.681Z,2.58
2022-11-17T07:31:08.716Z,2.75
2022-11-17T07:33:36.660Z,3.03
2022-11-17T07:36:09.790Z,2.90
2022-11-17T07:38:38.370Z,2.53
2022-11-17T07:41:06.763Z,3.45
2022-11-17T07:43:35.008Z,14.40
2022-11-17T07:46:11.493Z,11.93
2022-11-17T07:48:38.786Z,5.80
2022-11-17T07:51:06.062Z,3.83
2022-11-17T07:53:35.165Z,6.95
2022-11-17T07:56:11.067Z,4.28
2022-11-17T07:58:38.942Z,4.07
2022-11-17T08:01:06.621Z,3.75
2022-11-17T08:03:33.519Z,3.58
2022-11-17T08:06:07.568Z,3.60
2022-11-17T08:08:35.051Z,3.88
2022-11-17T08:11:03.747Z,3.30
2022-11-17T08:13:30.549Z,3.88
2022-11-17T08:15:59.142Z,3.97
2022-11-17T08:18:25.978Z,3.50
2022-11-17T08:20:52.728Z,3.70
2022-11-17T08:23:19.528Z,3.83
2022-11-17T08:25:46.264Z,3.28
2022-11-17T08:28:12.925Z,4.07
2022-11-17T08:30:39.672Z,4.25
2022-11-17T08:33:06.412Z,4.32
2022-11-17T08:35:37.405Z,3.55
2022-11-17T08:38:04.536Z,3.42
2022-11-17T08:40:31.324Z,3.22
2022-11-17T08:43:01.529Z,3.17
2022-11-17T08:45:28.785Z,4.30
2022-11-17T08:47:58.507Z,3.65
2022-11-17T08:50:25.402Z,3.30
2022-11-17T08:52:52.917Z,3.20
2022-11-17T08:55:19.694Z,3.30
2022-11-17T08:57:46.582Z,2.97
2022-11-17T09:00:13.780Z,3.03
2022-11-17T09:02:40.615Z,2.55
2022-11-17T09:05:07.751Z,3.10
2022-11-17T09:07:35.732Z,2.45
2022-11-17T09:10:04.576Z,2.22
2022-11-17T09:12:32.431Z,2.30
2022-11-17T09:14:59.085Z,1.85
2022-11-17T09:17:25.818Z,1.70
2022-11-17T09:19:52.477Z,1.42
2022-11-17T09:22:19.957Z,1.20
2022-11-17T09:24:46.617Z,0.98
2022-11-17T09:27:13.972Z,1.10
2022-11-17T09:29:40.617Z,1.50
2022-11-17T09:32:07.441Z,1.30
2022-11-17T09:34:34.151Z,1.42
2022-11-17T09:37:00.874Z,0.98
2022-11-17T09:39:27.605Z,1.30
2022-11-17T09:41:57.343Z,1.13
2022-11-17T09:44:42.044Z,0.70
2022-11-17T09:47:33.129Z,0.82
2022-11-17T09:50:05.773Z,0.50
2022-11-17T09:52:59.834Z,0.60
2022-11-17T09:55:34.170Z,0.60
2022-11-17T09:58:18.545Z,0.55
2022-11-17T10:00:48.986Z,0.50
2022-11-17T10:03:18.364Z,0.50
2022-11-17T10:05:45.322Z,0.32
2022-11-17T10:08:17.722Z,0.38
2022-11-17T10:10:51.785Z,0.60
2022-11-17T10:13:29.420Z,0.50
2022-11-17T10:16:05.702Z,0.30
2022-11-17T10:18:38.049Z,0.30
2022-11-17T10:21:06.833Z,0.30
2022-11-17T10:23:58.380Z,0.45
2022-11-17T10:26:26.001Z,0.50
2022-11-17T10:29:08.763Z,0.30
2022-11-17T10:31:46.480Z,0.50
2022-11-17T10:34:41.626Z,0.73
2022-11-17T10:37:14.277Z,0.35
2022-11-17T10:39:42.965Z,0.28
2022-11-17T10:42:27.846Z,0.20
2022-11-17T10:44:59.553Z,0.20
2022-11-17T10:47:37.629Z,0.32
2022-11-17T10:50:25.725Z,0.32
2022-11-17T10:52:54.773Z,0.20
2022-11-17T10:55:26.327Z,0.30
2022-11-17T10:58:01.277Z,0.47
2022-11-17T11:00:32.658Z,0.40
2022-11-17T11:03:04.815Z,0.40
2022-11-17T11:05:31.534Z,0.40
2022-11-17T11:08:18.426Z,0.68
2022-11-17T11:10:49.482Z,0.60
2022-11-17T11:13:25.986Z,0.45
2022-11-17T11:15:53.602Z,0.70
2022-11-17T11:18:21.101Z,0.60
2022-11-17T11:21:07.688Z,0.47
2022-11-17T11:23:56.872Z,0.50
2022-11-17T11:26:36.444Z,0.52
2022-11-17T11:29:29.131Z,0.60
2022-11-17T11:34:49.111Z,0.60
2022-11-17T11:37:16.880Z,0.63
2022-11-17T11:40:01.675Z,1.25
2022-11-17T11:42:52.817Z,0.70
2022-11-17T11:45:24.671Z,0.98
2022-11-17T11:48:32.386Z,0.73
2022-11-17T11:51:11.451Z,0.75
2022-11-17T11:54:29.116Z,0.70
2022-11-17T11:56:56.208Z,0.82
2022-11-17T11:59:38.504Z,0.60
2022-11-17T12:02:11.319Z,0.60
2022-11-17T12:04:48.949Z,1.25
2022-11-17T12:07:38.825Z,0.98
2022-11-17T12:10:36.499Z,1.00
2022-11-17T12:13:05.250Z,0.60
2022-11-17T12:15:34.349Z,1.02
2022-11-17T12:18:02.711Z,0.85
2022-11-17T12:20:38.675Z,1.02
2022-11-17T12:23:26.453Z,1.33
2022-11-17T12:25:57.017Z,1.08
2022-11-17T12:28:43.897Z,1.60
2022-11-17T12:31:25.781Z,0.98
2022-11-17T12:33:52.387Z,1.10
2022-11-17T12:36:30.542Z,1.00
2022-11-17T12:39:00.068Z,0.75
2022-11-17T12:41:48.400Z,0.88
2022-11-17T12:44:39.406Z,0.80
2022-11-17T12:47:16.848Z,0.77
2022-11-17T12:50:09.608Z,0.90
2022-11-17T12:52:46.516Z,1.02
2022-11-17T12:55:17.658Z,1.30
2022-11-17T12:57:47.987Z,0.85
2022-11-17T13:00:20.745Z,0.90
2022-11-17T13:03:09.448Z,0.80
2022-11-17T13:05:37.084Z,1.30
2022-11-17T13:08:22.477Z,0.98
2022-11-17T13:10:49.537Z,0.90
2022-11-17T13:13:24.217Z,1.05
2022-11-17T13:15:53.569Z,0.80
2022-11-17T13:18:41.277Z,1.20
2022-11-17T13:21:29.943Z,1.05
2022-11-17T13:23:58.549Z,0.93
2022-11-17T13:26:26.718Z,0.70
2022-11-17T13:29:13.327Z,0.80
2022-11-17T13:31:40.212Z,0.60
2022-11-17T13:34:09.820Z,1.00
2022-11-17T13:36:36.944Z,0.73
2022-11-17T13:39:03.766Z,0.95
2022-11-17T13:41:37.246Z,1.00
2022-11-17T13:44:06.313Z,1.40
2022-11-17T13:46:35.105Z,0.80
2022-11-17T13:49:01.839Z,0.95
2022-11-17T13:51:39.055Z,1.23
2022-11-17T13:54:12.202Z,1.10
2022-11-17T13:56:51.645Z,0.90
2022-11-17T13:59:18.316Z,0.80
2022-11-17T14:01:45.434Z,0.80
2022-11-17T14:04:23.303Z,0.80
2022-11-17T14:06:59.592Z,0.95
2022-11-17T14:09:28.829Z,1.20
2022-11-17T14:11:55.846Z,0.77
2022-11-17T14:14:31.555Z,0.90
2022-11-17T14:16:59.318Z,0.80
2022-11-17T14:19:31.840Z,0.80
2022-11-17T14:22:29.521Z,1.10
2022-11-17T14:24:58.234Z,1.38
2022-11-17T14:27:27.587Z,1.10
2022-11-17T14:29:54.316Z,0.90
2022-11-17T14:32:21.369Z,1.05
2022-11-17T14:34:48.007Z,1.02
2022-11-17T14:37:14.730Z,1.00
2022-11-17T14:39:41.563Z,1.13
2022-11-17T14:42:09.090Z,1.08
2022-11-17T14:44:35.728Z,1.00
2022-11-17T14:47:02.581Z,1.30
2022-11-17T14:49:29.286Z,1.08
2022-11-17T14:51:59.122Z,1.30
2022-11-17T14:54:26.351Z,1.30
2022-11-17T14:56:53.024Z,1.05
2022-11-17T14:59:19.887Z,0.95
2022-11-17T15:01:46.604Z,1.02
2022-11-17T15:04:48.145Z,1.35
2022-11-17T15:07:03.289Z,0.93
2022-11-17T15:09:30.113Z,1.65
2022-11-17T15:11:56.795Z,1.40
2022-11-17T15:14:23.472Z,1.10
2022-11-17T15:16:50.241Z,1.27
2022-11-17T15:19:17.029Z,1.20
2022-11-17T15:21:43.751Z,1.38
2022-11-17T15:24:10.474Z,1.00
2022-11-17T15:26:37.250Z,1.15
2022-11-17T15:29:04.410Z,1.48
2022-11-17T15:31:31.277Z,1.60
2022-11-17T15:33:58.082Z,2.20
2022-11-17T15:36:24.828Z,3.55
2022-11-17T15:38:53.324Z,4.13
2022-11-17T15:41:20.060Z,3.88
2022-11-17T15:43:46.756Z,3.45
2022-11-17T15:46:15.913Z,3.03
2022-11-17T15:48:44.603Z,3.50
2022-11-17T15:51:16.914Z,3.40
2022-11-17T15:53:45.135Z,2.80
2022-11-17T15:56:17.452Z,2.83
2022-11-17T16:01:31.265Z,3.30
2022-11-17T16:04:01.040Z,3.22
2022-11-17T16:06:28.910Z,3.85
2022-11-17T16:08:55.689Z,4.78
2022-11-17T16:11:22.617Z,3.53
2022-11-17T16:13:52.667Z,3.53
2022-11-17T16:16:19.533Z,3.38
2022-11-17T16:18:46.271Z,2.08
2022-11-17T16:21:14.115Z,2.90
2022-11-17T16:23:46.048Z,3.58
2022-11-17T16:26:14.692Z,3.83
2022-11-17T16:28:41.922Z,3.00
2022-11-17T16:31:22.865Z,3.95
2022-11-17T16:33:51.915Z,3.70
2022-11-17T16:36:19.948Z,3.38
2022-11-17T16:39:01.032Z,2.67
2022-11-17T16:41:31.782Z,2.63
2022-11-17T16:43:58.798Z,2.90
2022-11-17T16:46:30.740Z,2.55
2022-11-17T16:49:07.243Z,2.08
2022-11-17T16:51:34.534Z,1.75
2022-11-17T16:54:04.240Z,2.40
2022-11-17T16:56:31.640Z,1.45
2022-11-17T16:58:58.845Z,1.70
2022-11-17T17:01:28.659Z,1.45
2022-11-17T17:03:57.001Z,1.40
2022-11-17T17:06:24.323Z,1.42
2022-11-17T17:08:56.190Z,2.03
2022-11-17T17:11:23.154Z,1.30
2022-11-17T17:13:50.265Z,1.35
2022-11-17T17:16:19.117Z,1.77
2022-11-17T17:18:46.112Z,1.02
2022-11-17T17:21:18.461Z,1.50
2022-11-17T17:26:18.399Z,1.35
2022-11-17T17:28:47.284Z,1.90
2022-11-17T17:31:21.590Z,2.00
2022-11-17T17:33:50.501Z,1.38
2022-11-17T17:36:19.766Z,1.42
2022-11-17T17:38:53.284Z,1.80
2022-11-17T17:41:22.488Z,1.90
2022-11-17T17:43:55.683Z,1.55
2022-11-17T17:46:22.556Z,1.65
2022-11-17T17:48:49.245Z,1.60
2022-11-17T17:51:19.248Z,1.42
2022-11-17T17:53:49.991Z,1.40
2022-11-17T17:56:19.160Z,1.45
2022-11-17T17:58:48.700Z,1.50
2022-11-17T18:01:27.062Z,2.65
2022-11-17T18:04:01.128Z,3.17
2022-11-17T18:06:28.514Z,2.05
2022-11-17T18:08:55.240Z,3.28
2022-11-17T18:11:22.372Z,2.10
2022-11-17T18:13:51.211Z,1.58
2022-11-17T18:16:21.578Z,1.45
2022-11-17T18:18:49.231Z,2.00
2022-11-17T18:21:18.818Z,2.58
2022-11-17T18:23:45.687Z,2.28
2022-11-17T18:26:18.029Z,6.45
2022-11-17T18:31:16.302Z,3.53
2022-11-17T18:33:45.324Z,3.20
2022-11-17T18:36:12.319Z,3.00
2022-11-17T18:38:39.056Z,2.45
2022-11-17T18:41:11.564Z,2.35
2022-11-17T18:43:38.789Z,2.85
2022-11-17T18:46:08.613Z,2.30
2022-11-17T18:48:37.479Z,2.10
2022-11-17T18:51:22.583Z,1.98
2022-11-17T18:53:51.576Z,2.20
2022-11-17T18:56:24.123Z,2.00
2022-11-17T18:58:51.060Z,1.50
2022-11-17T19:01:19.932Z,1.83
2022-11-17T19:03:49.796Z,1.83
2022-11-17T19:06:18.156Z,1.70
2022-11-17T19:08:45.908Z,2.15
2022-11-17T19:11:13.339Z,2.10
2022-11-17T19:13:41.845Z,1.85
2022-11-17T19:16:16.940Z,2.22
2022-11-17T19:18:45.040Z,1.38
2022-11-17T19:21:14.454Z,1.02
2022-11-17T19:23:47.980Z,2.00
2022-11-17T19:26:31.887Z,2.22
2022-11-17T19:29:04.061Z,2.17
2022-11-17T19:31:31.451Z,2.15
2022-11-17T19:33:58.736Z,1.40
2022-11-17T19:36:29.343Z,1.70
2022-11-17T19:38:57.578Z,1.90
2022-11-17T19:41:30.136Z,1.70
2022-11-17T19:43:59.248Z,1.60
2022-11-17T19:46:27.760Z,1.30
2022-11-17T19:48:55.733Z,1.00
2022-11-17T19:51:24.958Z,1.27
2022-11-17T19:53:54.125Z,0.80
2022-11-17T19:56:22.135Z,1.00
2022-11-17T19:58:49.809Z,0.93
2022-11-17T20:01:19.574Z,0.95
2022-11-17T20:03:47.298Z,0.85
2022-11-17T20:06:16.832Z,1.00
2022-11-17T20:08:44.335Z,0.70
2022-11-17T20:11:17.102Z,0.70
2022-11-17T20:13:44.305Z,0.60
2022-11-17T20:16:16.448Z,0.63
2022-11-17T20:18:44.411Z,0.80
2022-11-17T20:21:13.984Z,0.70
2022-11-17T20:23:41.034Z,0.77
2022-11-17T20:26:13.492Z,0.95
2022-11-17T20:28:40.717Z,0.60
2022-11-17T20:31:12.923Z,0.70
2022-11-17T20:33:40.729Z,0.80
2022-11-17T20:36:09.323Z,0.57
2022-11-17T20:38:36.171Z,1.08
2022-11-17T20:41:04.146Z,0.70
2022-11-17T20:43:31.469Z,0.60
2022-11-17T20:45:58.576Z,1.00
2022-11-17T20:48:26.445Z,1.10
2022-11-17T20:50:57.293Z,0.80
2022-11-17T20:53:24.354Z,1.25
2022-11-17T20:55:51.144Z,1.10
2022-11-17T20:58:17.837Z,0.98
2022-11-17T21:00:44.566Z,1.67
2022-11-17T21:03:11.261Z,1.42
2022-11-17T21:05:37.911Z,1.48
2022-11-17T21:08:04.953Z,1.58
2022-11-17T21:10:31.870Z,1.45
2022-11-17T21:12:59.203Z,1.25
2022-11-17T21:15:26.118Z,1.90
2022-11-17T21:18:11.312Z,2.65
2022-11-17T21:20:38.000Z,2.42
2022-11-17T21:23:04.694Z,2.30
2022-11-17T21:25:32.091Z,2.60
2022-11-17T21:27:58.753Z,2.20
2022-11-17T21:30:25.417Z,1.48
2022-11-17T21:32:52.076Z,1.10
2022-11-17T21:35:19.067Z,0.85
2022-11-17T21:37:45.832Z,0.93
2022-11-17T21:40:12.589Z,1.08
2022-11-17T21:42:39.339Z,1.13
2022-11-17T21:45:06.483Z,0.85
2022-11-17T21:47:33.162Z,0.80
2022-11-17T21:49:59.867Z,0.75
2022-11-17T21:52:26.541Z,0.65
2022-11-17T21:54:53.203Z,0.80
2022-11-17T21:57:19.951Z,0.98
2022-11-17T21:59:46.754Z,0.90
2022-11-17T22:02:13.576Z,0.88
2022-11-17T22:04:40.258Z,0.60
2022-11-17T22:07:07.032Z,0.50
2022-11-17T22:09:34.216Z,0.55
2022-11-17T22:12:01.211Z,0.63
2022-11-17T22:14:28.032Z,0.57
2022-11-17T22:16:56.442Z,0.50
2022-11-17T22:19:26.964Z,0.40
2022-11-17T22:21:54.460Z,0.57
2022-11-17T22:24:21.509Z,0.50
2022-11-17T22:26:48.792Z,0.50
2022-11-17T22:29:18.585Z,0.57
2022-11-17T22:31:48.609Z,0.50
2022-11-17T22:34:16.035Z,0.63
2022-11-17T22:36:43.095Z,0.50
2022-11-17T22:39:09.862Z,0.50
2022-11-17T22:41:37.086Z,0.50
2022-11-17T22:44:05.639Z,0.40
2022-11-17T22:46:32.513Z,0.30
2022-11-17T22:48:59.654Z,0.60
2022-11-17T22:51:45.130Z,0.43
2022-11-17T22:54:12.042Z,0.60
2022-11-17T22:56:39.602Z,0.40
2022-11-17T22:59:06.619Z,0.40
2022-11-17T23:01:33.902Z,0.73
2022-11-17T23:04:00.664Z,0.45
2022-11-17T23:06:27.507Z,0.50
2022-11-17T23:08:55.648Z,0.45
2022-11-17T23:11:36.503Z,0.40
2022-11-17T23:14:05.433Z,0.50
2022-11-17T23:16:33.204Z,0.50
2022-11-17T23:19:00.144Z,0.57
2022-11-17T23:21:27.629Z,0.60
2022-11-17T23:23:54.310Z,0.50
2022-11-17T23:26:21.261Z,0.32
2022-11-17T23:28:48.349Z,0.50
2022-11-17T23:31:16.957Z,0.40
2022-11-17T23:33:46.842Z,0.50
2022-11-17T23:36:16.647Z,0.40
2022-11-17T23:38:43.731Z,0.40
2022-11-17T23:41:13.369Z,0.30
2022-11-17T23:43:41.030Z,0.35
2022-11-17T23:46:11.464Z,0.30
2022-11-17T23:48:38.687Z,0.30
2022-11-17T23:51:11.078Z,0.45
2022-11-17T23:56:06.577Z,0.60
2022-11-17T23:58:33.507Z,0.40
